createdAt,value
2023-04-24T00:01:03.813Z,8.88
2023-04-24T00:03:31.095Z,8.93
2023-04-24T00:05:57.915Z,8.88
2023-04-24T00:08:24.873Z,8.82
2023-04-24T00:10:53.601Z,8.00
2023-04-24T00:13:20.324Z,7.53
2023-04-24T00:15:48.329Z,7.35
2023-04-24T00:18:14.918Z,7.18
2023-04-24T00:20:41.752Z,7.68
2023-04-24T00:23:08.372Z,6.63
2023-04-24T00:25:34.984Z,7.50
2023-04-24T00:28:01.928Z,7.60
2023-04-24T00:30:29.473Z,6.90
2023-04-24T00:32:56.080Z,7.28
2023-04-24T00:35:24.520Z,6.40
2023-04-24T00:37:52.352Z,6.50
2023-04-24T00:40:19.134Z,7.00
2023-04-24T00:42:46.326Z,7.80
2023-04-24T00:45:13.147Z,7.22
2023-04-24T00:47:40.101Z,8.15
2023-04-24T00:50:07.729Z,7.60
2023-04-24T00:52:35.182Z,8.80
2023-04-24T00:55:01.847Z,8.65
2023-04-24T00:57:29.036Z,9.43
2023-04-24T00:59:55.721Z,8.75
2023-04-24T01:02:24.212Z,9.98
2023-04-24T01:04:52.196Z,9.05
2023-04-24T01:07:21.971Z,8.43
2023-04-24T01:09:50.015Z,10.32
2023-04-24T01:12:16.647Z,10.35
2023-04-24T01:14:45.663Z,11.23
2023-04-24T01:17:12.745Z,11.93
2023-04-24T01:19:39.591Z,12.10
2023-04-24T01:22:12.785Z,12.52
2023-04-24T01:24:43.973Z,12.52
2023-04-24T01:27:13.201Z,12.80
2023-04-24T01:29:40.533Z,14.68
2023-04-24T01:32:08.313Z,13.27
2023-04-24T01:34:35.491Z,14.70
2023-04-24T01:37:02.335Z,15.30
2023-04-24T01:39:29.660Z,13.32
2023-04-24T01:41:57.252Z,16.00
2023-04-24T01:44:24.698Z,14.07
2023-04-24T01:46:51.861Z,15.63
2023-04-24T01:49:18.747Z,14.40
2023-04-24T01:51:46.036Z,16.20
2023-04-24T01:54:13.175Z,16.55
2023-04-24T01:56:44.225Z,16.33
2023-04-24T01:59:14.132Z,16.60
2023-04-24T02:01:40.908Z,17.00
2023-04-24T02:04:08.676Z,16.15
2023-04-24T02:06:36.286Z,15.85
2023-04-24T02:09:04.329Z,17.00
2023-04-24T02:11:31.169Z,16.60
2023-04-24T02:13:59.202Z,16.55
2023-04-24T02:16:27.127Z,16.38
2023-04-24T02:18:53.806Z,16.48
2023-04-24T02:21:20.459Z,17.52
2023-04-24T02:23:47.121Z,17.35
2023-04-24T02:26:14.013Z,18.73
2023-04-24T02:28:40.703Z,17.90
2023-04-24T02:31:07.543Z,19.67
2023-04-24T02:33:34.299Z,21.45
2023-04-24T02:36:02.892Z,21.88
2023-04-24T02:38:30.401Z,22.30
2023-04-24T02:40:57.003Z,24.00
2023-04-24T02:43:23.555Z,25.35
2023-04-24T02:45:50.658Z,23.33
2023-04-24T02:48:18.049Z,23.95
2023-04-24T02:50:45.087Z,25.77
2023-04-24T02:53:11.639Z,25.35
2023-04-24T02:55:38.279Z,24.85
2023-04-24T02:58:05.056Z,25.27
2023-04-24T03:00:31.608Z,24.33
2023-04-24T03:02:58.431Z,26.70
2023-04-24T03:05:25.396Z,26.17
2023-04-24T03:07:53.609Z,25.33
2023-04-24T03:10:23.497Z,26.02
2023-04-24T03:12:50.349Z,24.50
2023-04-24T03:15:18.883Z,26.33
2023-04-24T03:17:45.571Z,24.52
2023-04-24T03:20:13.138Z,23.98
2023-04-24T03:22:39.946Z,24.88
2023-04-24T03:25:10.280Z,24.70
2023-04-24T03:27:37.361Z,25.23
2023-04-24T03:30:32.503Z,24.90
2023-04-24T03:33:01.071Z,24.95
2023-04-24T03:35:31.197Z,22.23
2023-04-24T03:38:01.619Z,25.73
2023-04-24T03:40:46.922Z,24.58
2023-04-24T03:43:45.619Z,24.23
2023-04-24T03:46:13.107Z,22.17
2023-04-24T03:48:44.758Z,22.50
2023-04-24T03:51:11.886Z,22.80
2023-04-24T03:53:42.754Z,21.92
2023-04-24T03:56:11.277Z,21.95
2023-04-24T03:58:38.353Z,21.25
2023-04-24T04:01:06.595Z,22.15
2023-04-24T04:03:55.340Z,20.20
2023-04-24T04:06:29.499Z,19.20
2023-04-24T04:08:58.171Z,23.25
2023-04-24T04:11:25.263Z,20.92
2023-04-24T04:13:52.064Z,21.90
2023-04-24T04:16:21.381Z,21.77
2023-04-24T04:18:50.794Z,21.17
2023-04-24T04:21:17.754Z,21.40
2023-04-24T04:23:45.037Z,20.73
2023-04-24T04:26:22.073Z,20.10
2023-04-24T04:29:09.303Z,20.23
2023-04-24T04:31:41.993Z,19.73
2023-04-24T04:34:13.612Z,17.95
2023-04-24T04:36:43.957Z,17.02
2023-04-24T04:39:23.844Z,17.92
2023-04-24T04:42:01.435Z,17.33
2023-04-24T04:44:37.154Z,17.15
2023-04-24T04:47:09.758Z,18.92
2023-04-24T04:49:39.638Z,17.65
2023-04-24T04:52:10.968Z,15.18
2023-04-24T04:54:38.115Z,15.23
2023-04-24T04:57:04.707Z,16.77
2023-04-24T04:59:36.098Z,15.02
2023-04-24T05:02:07.275Z,15.90
2023-04-24T05:04:34.270Z,16.42
2023-04-24T05:07:01.190Z,16.20
2023-04-24T05:09:30.602Z,15.43
2023-04-24T05:12:03.300Z,14.43
2023-04-24T05:14:34.051Z,11.95
2023-04-24T05:17:01.186Z,15.98
2023-04-24T05:19:27.941Z,13.20
2023-04-24T05:21:54.710Z,14.45
2023-04-24T05:24:21.346Z,13.40
2023-04-24T05:27:26.409Z,13.18
2023-04-24T05:29:53.238Z,14.13
2023-04-24T05:32:19.887Z,14.25
2023-04-24T05:34:46.557Z,13.70
2023-04-24T05:37:14.462Z,13.10
2023-04-24T05:39:42.823Z,14.05
2023-04-24T05:42:09.642Z,13.23
2023-04-24T05:44:36.191Z,12.57
2023-04-24T05:47:03.032Z,13.07
2023-04-24T05:49:29.688Z,13.18
2023-04-24T05:51:58.462Z,10.60
2023-04-24T05:54:25.067Z,10.00
2023-04-24T05:56:52.461Z,10.05
2023-04-24T05:59:29.462Z,8.63
2023-04-24T06:01:57.894Z,6.57
2023-04-24T06:04:25.938Z,5.00
2023-04-24T06:06:56.734Z,5.97
2023-04-24T06:09:23.835Z,5.70
2023-04-24T06:11:51.454Z,6.63
2023-04-24T06:14:18.293Z,8.20
2023-04-24T06:17:03.557Z,7.30
2023-04-24T06:19:36.155Z,7.82
2023-04-24T06:22:03.659Z,6.85
2023-04-24T06:24:30.371Z,7.60
2023-04-24T06:26:59.935Z,6.18
2023-04-24T06:29:26.603Z,5.60
2023-04-24T06:31:53.387Z,4.72
2023-04-24T06:34:20.161Z,4.20
2023-04-24T06:36:47.973Z,3.42
2023-04-24T06:39:14.711Z,2.63
2023-04-24T06:41:41.342Z,2.70
2023-04-24T06:44:11.419Z,2.40
2023-04-24T06:46:39.780Z,1.92
2023-04-24T06:49:07.772Z,1.98
2023-04-24T06:51:34.451Z,2.58
2023-04-24T06:54:01.255Z,2.67
2023-04-24T06:56:29.781Z,2.30
2023-04-24T06:58:56.389Z,2.35
2023-04-24T07:01:23.033Z,2.30
2023-04-24T07:03:49.798Z,1.77
2023-04-24T07:06:17.700Z,1.50
2023-04-24T07:08:44.628Z,1.27
2023-04-24T07:11:11.266Z,1.20
2023-04-24T07:13:42.616Z,1.10
2023-04-24T07:16:09.848Z,0.85
2023-04-24T07:18:37.495Z,0.80
2023-04-24T07:21:04.154Z,1.10
2023-04-24T07:23:31.707Z,1.75
2023-04-24T07:25:58.566Z,2.22
2023-04-24T07:28:25.723Z,2.53
2023-04-24T07:30:54.829Z,2.20
2023-04-24T07:33:21.560Z,2.10
2023-04-24T07:35:50.472Z,1.70
2023-04-24T07:38:17.155Z,1.30
2023-04-24T07:40:43.807Z,1.35
2023-04-24T07:43:10.753Z,1.20
2023-04-24T07:45:38.609Z,1.65
2023-04-24T07:48:05.732Z,4.82
2023-04-24T07:50:32.471Z,4.82
2023-04-24T07:52:59.102Z,6.80
2023-04-24T07:55:28.364Z,6.80
2023-04-24T07:57:55.092Z,8.82
2023-04-24T08:00:22.788Z,10.02
2023-04-24T08:02:49.563Z,10.43
2023-04-24T08:05:16.467Z,11.82
2023-04-24T08:07:43.735Z,11.77
2023-04-24T08:10:14.329Z,11.90
2023-04-24T08:12:41.320Z,12.57
2023-04-24T08:15:08.677Z,12.25
2023-04-24T08:17:36.405Z,12.05
2023-04-24T08:20:06.012Z,12.98
2023-04-24T08:22:32.744Z,13.00
2023-04-24T08:25:01.058Z,13.32
2023-04-24T08:27:27.869Z,12.77
2023-04-24T08:29:55.150Z,12.10
2023-04-24T08:32:21.789Z,11.32
2023-04-24T08:34:49.661Z,10.90
2023-04-24T08:37:17.606Z,11.15
2023-04-24T08:39:44.428Z,10.35
2023-04-24T08:42:12.548Z,10.73
2023-04-24T08:44:39.489Z,11.02
2023-04-24T08:47:06.268Z,11.82
2023-04-24T08:49:34.464Z,10.55
2023-04-24T08:52:02.540Z,10.05
2023-04-24T08:54:29.870Z,10.40
2023-04-24T08:57:04.472Z,9.95
2023-04-24T08:59:32.302Z,10.63
2023-04-24T09:01:59.053Z,10.13
2023-04-24T09:04:26.493Z,11.05
2023-04-24T09:06:57.259Z,6.95
2023-04-24T09:09:26.698Z,7.38
2023-04-24T09:11:56.321Z,8.70
2023-04-24T09:14:24.597Z,7.53
2023-04-24T09:16:51.849Z,6.07
2023-04-24T09:19:18.893Z,6.97
2023-04-24T09:21:48.702Z,6.40
2023-04-24T09:24:18.755Z,5.90
2023-04-24T09:26:46.082Z,5.30
2023-04-24T09:29:17.829Z,5.03
2023-04-24T09:31:46.185Z,4.87
2023-04-24T09:34:13.039Z,5.43
2023-04-24T09:36:42.518Z,4.20
2023-04-24T09:39:17.531Z,4.45
2023-04-24T09:42:01.915Z,3.83
2023-04-24T09:44:29.449Z,3.55
2023-04-24T09:46:57.230Z,3.38
2023-04-24T09:49:26.019Z,3.83
2023-04-24T09:51:53.434Z,3.38
2023-04-24T09:54:23.502Z,3.33
2023-04-24T09:56:51.635Z,2.80
2023-04-24T09:59:20.328Z,3.38
2023-04-24T10:01:49.677Z,3.05
2023-04-24T10:04:21.601Z,3.17
2023-04-24T10:06:50.035Z,3.30
2023-04-24T10:09:22.311Z,3.45
2023-04-24T10:11:51.146Z,3.17
2023-04-24T10:14:21.598Z,3.42
2023-04-24T10:16:49.011Z,2.78
2023-04-24T10:19:16.621Z,3.50
2023-04-24T10:21:47.382Z,3.22
2023-04-24T10:24:18.973Z,2.78
2023-04-24T10:26:46.973Z,3.17
2023-04-24T10:29:16.445Z,3.30
2023-04-24T10:31:46.424Z,2.47
2023-04-24T10:34:15.252Z,2.28
2023-04-24T10:36:47.015Z,2.75
2023-04-24T10:39:16.171Z,2.25
2023-04-24T10:41:42.893Z,2.03
2023-04-24T10:44:15.909Z,2.83
2023-04-24T10:46:49.246Z,2.45
2023-04-24T10:49:15.963Z,2.20
2023-04-24T10:51:54.176Z,2.38
2023-04-24T10:54:25.873Z,2.20
2023-04-24T10:56:53.257Z,2.30
2023-04-24T10:59:27.992Z,1.98
2023-04-24T11:01:58.417Z,2.47
2023-04-24T11:04:32.732Z,2.25
2023-04-24T11:06:59.732Z,2.40
2023-04-24T11:09:32.737Z,2.13
2023-04-24T11:12:11.317Z,1.58
2023-04-24T11:14:56.357Z,1.70
2023-04-24T11:17:34.274Z,1.60
2023-04-24T11:20:25.960Z,1.45
2023-04-24T11:22:56.066Z,1.50
2023-04-24T11:25:24.347Z,1.60
2023-04-24T11:27:51.530Z,1.23
2023-04-24T11:30:20.445Z,1.48
2023-04-24T11:32:52.102Z,1.73
2023-04-24T11:35:22.088Z,1.50
2023-04-24T11:40:26.889Z,1.55
2023-04-24T11:42:56.425Z,2.03
2023-04-24T11:45:26.068Z,1.55
2023-04-24T11:47:52.938Z,1.83
2023-04-24T11:50:22.545Z,2.05
2023-04-24T11:52:50.590Z,1.80
2023-04-24T11:55:17.178Z,1.25
2023-04-24T11:57:45.622Z,1.73
2023-04-24T12:00:26.934Z,1.60
2023-04-24T12:03:07.476Z,1.85
2023-04-24T12:05:35.860Z,2.08
2023-04-24T12:08:02.794Z,1.60
2023-04-24T12:10:31.625Z,1.48
2023-04-24T12:13:00.933Z,1.48
2023-04-24T12:15:28.433Z,1.48
2023-04-24T12:17:56.356Z,1.40
2023-04-24T12:20:29.789Z,1.80
2023-04-24T12:22:58.851Z,1.20
2023-04-24T12:25:33.236Z,1.55
2023-04-24T12:28:06.279Z,1.92
2023-04-24T12:30:40.737Z,1.83
2023-04-24T12:33:07.761Z,1.52
2023-04-24T12:35:35.076Z,1.63
2023-04-24T12:38:15.631Z,1.25
2023-04-24T12:40:43.692Z,1.80
2023-04-24T12:43:20.965Z,1.48
2023-04-24T12:45:49.039Z,1.70
2023-04-24T12:48:15.905Z,1.60
2023-04-24T12:50:46.118Z,1.58
2023-04-24T12:53:13.423Z,1.73
2023-04-24T12:55:40.146Z,1.40
2023-04-24T12:58:06.893Z,1.70
2023-04-24T13:00:34.209Z,1.70
2023-04-24T13:03:02.525Z,1.92
2023-04-24T13:05:29.592Z,1.77
2023-04-24T13:07:56.361Z,1.40
2023-04-24T13:10:23.228Z,1.60
2023-04-24T13:12:50.520Z,1.20
2023-04-24T13:15:17.170Z,0.80
2023-04-24T13:17:43.964Z,1.10
2023-04-24T13:20:10.962Z,1.20
2023-04-24T13:22:38.186Z,1.42
2023-04-24T13:25:07.236Z,2.05
2023-04-24T13:27:34.455Z,1.50
2023-04-24T13:30:01.462Z,1.60
2023-04-24T13:32:29.755Z,1.33
2023-04-24T13:34:57.845Z,1.50
2023-04-24T13:37:24.474Z,1.40
2023-04-24T13:39:52.330Z,1.00
2023-04-24T13:42:19.841Z,1.40
2023-04-24T13:44:46.483Z,1.40
2023-04-24T13:47:13.171Z,1.48
2023-04-24T13:49:40.850Z,1.50
2023-04-24T13:52:08.530Z,1.30
2023-04-24T13:54:35.177Z,1.20
2023-04-24T13:57:03.798Z,1.92
2023-04-24T13:59:30.671Z,1.42
2023-04-24T14:01:57.311Z,1.70
2023-04-24T14:04:24.051Z,2.25
2023-04-24T14:06:51.433Z,1.83
2023-04-24T14:09:18.067Z,1.92
2023-04-24T14:11:44.822Z,1.80
2023-04-24T14:14:11.549Z,1.45
2023-04-24T14:16:38.197Z,2.60
2023-04-24T14:19:06.408Z,2.10
2023-04-24T14:21:33.635Z,1.60
2023-04-24T14:24:00.557Z,1.45
2023-04-24T14:26:28.243Z,1.98
2023-04-24T14:29:04.104Z,1.52
2023-04-24T14:31:40.824Z,1.58
2023-04-24T14:34:07.477Z,1.70
2023-04-24T14:36:34.086Z,2.13
2023-04-24T14:39:00.660Z,2.20
2023-04-24T14:41:27.295Z,2.38
2023-04-24T14:43:53.873Z,3.90
2023-04-24T14:46:21.066Z,6.10
2023-04-24T14:48:48.021Z,3.30
2023-04-24T14:51:15.606Z,2.60
2023-04-24T14:53:42.301Z,1.80
2023-04-24T14:56:09.037Z,1.80
2023-04-24T14:58:35.933Z,2.25
2023-04-24T15:01:05.504Z,2.35
2023-04-24T15:03:33.208Z,2.40
2023-04-24T15:06:00.572Z,2.20
2023-04-24T15:08:27.478Z,2.10
2023-04-24T15:10:54.741Z,2.83
2023-04-24T15:13:21.608Z,3.45
2023-04-24T15:15:51.523Z,3.78
2023-04-24T15:18:18.335Z,4.03
2023-04-24T15:20:45.384Z,3.05
2023-04-24T15:23:12.642Z,3.47
2023-04-24T15:25:39.627Z,3.30
2023-04-24T15:28:06.993Z,3.60
2023-04-24T15:30:33.896Z,2.50
2023-04-24T15:33:02.116Z,2.83
2023-04-24T15:35:31.679Z,4.32
2023-04-24T15:37:58.621Z,3.92
2023-04-24T15:40:25.521Z,3.58
2023-04-24T15:42:52.302Z,3.92
2023-04-24T15:45:20.495Z,4.68
2023-04-24T15:47:47.675Z,3.03
2023-04-24T15:50:16.936Z,3.13
2023-04-24T15:52:44.204Z,2.97
2023-04-24T15:55:11.218Z,3.25
2023-04-24T15:57:37.993Z,3.25
2023-04-24T16:00:10.862Z,2.63
2023-04-24T16:02:41.213Z,3.90
2023-04-24T16:05:08.746Z,3.50
2023-04-24T16:07:36.100Z,3.90
2023-04-24T16:10:02.809Z,3.88
2023-04-24T16:12:29.698Z,3.40
2023-04-24T16:14:56.521Z,4.30
2023-04-24T16:17:23.786Z,5.07
2023-04-24T16:19:50.438Z,4.95
2023-04-24T16:22:17.155Z,6.43
2023-04-24T16:24:44.620Z,8.15
2023-04-24T16:27:11.275Z,6.82
2023-04-24T16:29:37.910Z,4.43
2023-04-24T16:32:04.658Z,3.90
2023-04-24T16:34:31.380Z,2.70
2023-04-24T16:36:58.304Z,3.55
2023-04-24T16:39:25.906Z,3.17
2023-04-24T16:41:59.603Z,3.78
2023-04-24T16:44:26.936Z,3.65
2023-04-24T16:47:19.502Z,3.10
2023-04-24T16:49:46.337Z,3.80
2023-04-24T16:52:15.107Z,4.78
2023-04-24T16:54:42.881Z,3.88
2023-04-24T16:57:11.962Z,4.78
2023-04-24T16:59:38.810Z,4.85
2023-04-24T17:02:09.240Z,4.22
2023-04-24T17:04:36.108Z,3.78
2023-04-24T17:07:03.235Z,5.35
2023-04-24T17:09:30.686Z,3.63
2023-04-24T17:11:57.528Z,4.22
2023-04-24T17:14:26.357Z,3.75
2023-04-24T17:16:53.517Z,4.07
2023-04-24T17:19:21.369Z,4.60
2023-04-24T17:21:48.178Z,3.45
2023-04-24T17:24:14.927Z,4.15
2023-04-24T17:26:41.778Z,4.07
2023-04-24T17:29:08.607Z,3.65
2023-04-24T17:31:35.490Z,3.47
2023-04-24T17:34:02.606Z,3.97
2023-04-24T17:36:29.749Z,4.55
2023-04-24T17:38:56.603Z,6.40
2023-04-24T17:41:23.434Z,7.68
2023-04-24T17:43:50.282Z,8.88
2023-04-24T17:46:17.208Z,4.05
2023-04-24T17:48:44.071Z,4.30
2023-04-24T17:51:10.945Z,4.25
2023-04-24T17:53:37.819Z,6.25
2023-04-24T17:56:04.737Z,5.00
2023-04-24T17:58:31.657Z,4.35
2023-04-24T18:00:58.515Z,4.75
2023-04-24T18:03:25.562Z,4.38
2023-04-24T18:05:52.498Z,4.80
2023-04-24T18:08:19.560Z,4.40
2023-04-24T18:10:46.484Z,4.80
2023-04-24T18:13:13.333Z,4.72
2023-04-24T18:15:43.683Z,4.90
2023-04-24T18:18:11.337Z,5.25
2023-04-24T18:20:38.587Z,4.95
2023-04-24T18:23:05.836Z,4.13
2023-04-24T18:25:32.868Z,4.82
2023-04-24T18:27:59.593Z,4.22
2023-04-24T18:30:26.965Z,4.75
2023-04-24T18:32:53.950Z,4.88
2023-04-24T18:35:21.538Z,4.15
2023-04-24T18:37:48.349Z,4.47
2023-04-24T18:40:15.452Z,4.35
2023-04-24T18:42:42.359Z,4.43
2023-04-24T18:45:10.923Z,3.80
2023-04-24T18:47:39.303Z,4.68
2023-04-24T18:50:14.543Z,4.63
2023-04-24T18:52:41.247Z,4.38
2023-04-24T18:55:09.665Z,4.75
2023-04-24T18:57:36.351Z,4.90
2023-04-24T19:00:04.020Z,5.35
2023-04-24T19:02:30.964Z,4.78
2023-04-24T19:04:57.720Z,5.07
2023-04-24T19:07:24.370Z,4.70
2023-04-24T19:09:50.974Z,5.35
2023-04-24T19:12:17.636Z,5.68
2023-04-24T19:14:46.064Z,5.40
2023-04-24T19:17:12.749Z,5.85
2023-04-24T19:19:39.463Z,5.65
2023-04-24T19:22:07.554Z,7.60
2023-04-24T19:24:34.458Z,6.35
2023-04-24T19:27:01.605Z,5.65
2023-04-24T19:29:28.480Z,5.50
2023-04-24T19:31:55.573Z,5.97
2023-04-24T19:34:22.253Z,5.68
2023-04-24T19:36:48.851Z,5.43
2023-04-24T19:39:16.061Z,5.07
2023-04-24T19:41:42.632Z,4.30
2023-04-24T19:44:10.594Z,6.07
2023-04-24T19:46:37.612Z,4.82
2023-04-24T19:49:04.392Z,5.82
2023-04-24T19:51:32.275Z,5.20
2023-04-24T19:53:59.539Z,5.22
2023-04-24T19:56:26.116Z,5.68
2023-04-24T19:58:52.703Z,5.30
2023-04-24T20:01:19.354Z,6.22
2023-04-24T20:03:46.183Z,6.38
2023-04-24T20:06:12.808Z,5.22
2023-04-24T20:08:39.562Z,5.50
2023-04-24T20:11:06.400Z,5.60
2023-04-24T20:13:33.146Z,6.68
2023-04-24T20:16:00.270Z,5.28
2023-04-24T20:18:27.134Z,5.90
2023-04-24T20:20:56.818Z,5.85
2023-04-24T20:23:23.482Z,6.20
2023-04-24T20:25:50.320Z,5.65
2023-04-24T20:28:18.183Z,6.32
2023-04-24T20:30:45.972Z,5.60
2023-04-24T20:33:12.627Z,5.80
2023-04-24T20:35:39.452Z,5.82
2023-04-24T20:38:06.798Z,5.97
2023-04-24T20:40:35.498Z,6.20
2023-04-24T20:43:04.307Z,6.28
2023-04-24T20:45:31.307Z,5.50
2023-04-24T20:47:58.043Z,5.45
2023-04-24T20:50:25.324Z,5.68
2023-04-24T20:52:52.080Z,5.03
2023-04-24T20:55:18.870Z,5.05
2023-04-24T20:57:45.622Z,6.15
2023-04-24T21:00:13.621Z,5.50
2023-04-24T21:02:40.961Z,5.25
2023-04-24T21:05:08.314Z,6.07
2023-04-24T21:07:35.156Z,5.82
2023-04-24T21:10:02.011Z,6.28
2023-04-24T21:12:28.733Z,5.90
2023-04-24T21:14:55.506Z,6.82
2023-04-24T21:17:22.452Z,5.93
2023-04-24T21:19:49.267Z,7.15
2023-04-24T21:22:16.147Z,7.90
2023-04-24T21:24:42.952Z,12.27
2023-04-24T21:27:09.790Z,8.50
2023-04-24T21:29:37.500Z,7.95
2023-04-24T21:32:04.883Z,7.05
2023-04-24T21:34:58.893Z,6.50
2023-04-24T21:37:28.544Z,9.98
2023-04-24T21:39:55.264Z,6.75
2023-04-24T21:42:21.945Z,6.72
2023-04-24T21:44:48.696Z,7.20
2023-04-24T21:47:15.425Z,6.32
2023-04-24T21:49:42.478Z,5.57
2023-04-24T21:52:09.125Z,5.82
2023-04-24T21:54:35.717Z,5.35
2023-04-24T21:57:02.980Z,4.25
2023-04-24T21:59:30.176Z,4.43
2023-04-24T22:01:57.015Z,5.75
2023-04-24T22:04:23.819Z,4.57
2023-04-24T22:06:53.190Z,5.47
2023-04-24T22:09:19.979Z,6.05
2023-04-24T22:11:46.642Z,5.28
2023-04-24T22:14:14.787Z,5.68
2023-04-24T22:16:41.873Z,4.90
2023-04-24T22:19:08.960Z,5.63
2023-04-24T22:21:35.821Z,6.43
2023-04-24T22:24:02.553Z,5.05
2023-04-24T22:26:29.149Z,5.82
2023-04-24T22:28:55.740Z,4.95
2023-04-24T22:31:23.104Z,5.60
2023-04-24T22:33:51.642Z,3.45
2023-04-24T22:36:18.779Z,4.32
2023-04-24T22:38:45.359Z,4.35
2023-04-24T22:41:12.405Z,3.47
2023-04-24T22:43:39.280Z,4.03
2023-04-24T22:46:06.088Z,4.13
2023-04-24T22:48:34.592Z,4.18
2023-04-24T22:51:01.278Z,4.20
2023-04-24T22:53:28.818Z,3.30
2023-04-24T22:55:58.636Z,3.20
2023-04-24T22:58:25.574Z,3.38
2023-04-24T23:00:52.607Z,3.20
2023-04-24T23:03:19.344Z,3.45
2023-04-24T23:05:46.100Z,4.15
2023-04-24T23:08:12.756Z,3.53
2023-04-24T23:10:39.620Z,4.03
2023-04-24T23:13:06.386Z,4.15
2023-04-24T23:15:33.099Z,3.30
2023-04-24T23:17:59.762Z,6.65
2023-04-24T23:20:26.704Z,7.70
2023-04-24T23:22:53.454Z,6.15
2023-04-24T23:25:20.236Z,7.15
2023-04-24T23:27:47.638Z,5.35
2023-04-24T23:30:14.302Z,3.45
2023-04-24T23:32:40.863Z,5.50
2023-04-24T23:35:08.862Z,5.72
2023-04-24T23:37:36.276Z,5.28
2023-04-24T23:40:03.030Z,3.88
2023-04-24T23:42:29.638Z,4.15
2023-04-24T23:44:56.275Z,5.10
2023-04-24T23:47:22.930Z,5.32
2023-04-24T23:49:49.571Z,6.07
2023-04-24T23:52:16.274Z,5.47
2023-04-24T23:54:42.918Z,5.70
2023-04-24T23:57:09.663Z,4.72
2023-04-24T23:59:37.247Z,5.15
